createdAt,value
2019-02-18T00:00:53.153Z,97869.11
2019-02-18T00:03:21.195Z,97865.20
2019-02-18T00:05:48.607Z,97862.64
2019-02-18T00:08:16.117Z,97864.92
2019-02-18T00:10:43.514Z,97857.05
2019-02-18T00:13:11.072Z,97864.54
2019-02-18T00:15:38.690Z,97860.01
2019-02-18T00:18:06.115Z,97865.94
2019-02-18T00:20:33.794Z,97864.58
2019-02-18T00:23:01.276Z,97871.00
2019-02-18T00:25:28.732Z,97867.53
2019-02-18T00:27:56.196Z,97867.20
2019-02-18T00:30:23.592Z,97874.56
2019-02-18T00:32:51.101Z,97875.48
2019-02-18T00:35:18.520Z,97871.30
2019-02-18T00:37:45.938Z,97874.38
2019-02-18T00:40:13.344Z,97872.63
2019-02-18T00:42:40.735Z,97874.38
2019-02-18T00:45:10.647Z,97873.83
2019-02-18T00:47:38.103Z,97873.31
2019-02-18T00:50:05.554Z,97873.60
2019-02-18T00:52:33.727Z,97872.30
2019-02-18T00:55:01.283Z,97872.80
2019-02-18T00:57:28.751Z,97874.67
2019-02-18T00:59:56.154Z,97872.41
2019-02-18T01:02:23.657Z,97870.71
2019-02-18T01:04:52.350Z,97869.55
2019-02-18T01:07:19.784Z,97873.70
2019-02-18T01:09:47.200Z,97871.66
2019-02-18T01:12:14.623Z,97869.64
2019-02-18T01:14:42.077Z,97863.40
2019-02-18T01:17:09.543Z,97865.84
2019-02-18T01:19:36.948Z,97861.95
2019-02-18T01:22:04.351Z,97864.09
2019-02-18T01:24:31.789Z,97864.57
2019-02-18T01:26:59.176Z,97860.25
2019-02-18T01:29:26.574Z,97860.64
2019-02-18T01:31:54.167Z,97860.87
2019-02-18T01:34:21.558Z,97859.89
2019-02-18T01:36:48.971Z,97864.28
2019-02-18T01:39:16.416Z,97855.80
2019-02-18T01:41:43.816Z,97856.86
2019-02-18T01:44:11.247Z,97859.19
2019-02-18T01:46:38.808Z,97866.13
2019-02-18T01:49:06.872Z,97865.41
2019-02-18T01:51:34.437Z,97869.17
2019-02-18T01:54:01.883Z,97866.22
2019-02-18T01:56:29.297Z,97861.76
2019-02-18T01:58:56.779Z,97861.81
2019-02-18T02:01:24.181Z,97867.09
2019-02-18T02:03:51.596Z,97860.39
2019-02-18T02:06:19.026Z,97856.53
2019-02-18T02:08:46.499Z,97857.49
2019-02-18T02:11:13.890Z,97845.09
2019-02-18T02:13:41.298Z,97843.17
2019-02-18T02:16:08.703Z,97842.20
2019-02-18T02:18:36.125Z,97841.00
2019-02-18T02:21:04.442Z,97839.52
2019-02-18T02:23:31.855Z,97834.69
2019-02-18T02:25:59.245Z,97831.95
2019-02-18T02:28:26.755Z,97822.31
2019-02-18T02:30:54.146Z,97822.19
2019-02-18T02:33:21.571Z,97817.52
2019-02-18T02:35:49.005Z,97818.16
2019-02-18T02:38:16.414Z,97814.17
2019-02-18T02:40:43.813Z,97812.45
2019-02-18T02:43:11.212Z,97813.27
2019-02-18T02:45:38.739Z,97816.16
2019-02-18T02:48:06.126Z,97817.07
2019-02-18T02:50:33.546Z,97809.59
2019-02-18T02:53:00.935Z,97802.73
2019-02-18T02:55:28.527Z,97806.18
2019-02-18T02:57:56.091Z,97811.91
2019-02-18T03:00:23.492Z,97804.06
2019-02-18T03:02:50.922Z,97801.23
2019-02-18T03:05:18.323Z,97807.69
2019-02-18T03:07:45.743Z,97806.36
2019-02-18T03:10:13.144Z,97805.94
2019-02-18T03:12:40.534Z,97800.11
2019-02-18T03:15:09.297Z,97808.06
2019-02-18T03:17:36.727Z,97809.39
2019-02-18T03:20:04.132Z,97809.66
2019-02-18T03:22:31.572Z,97807.27
2019-02-18T03:25:19.545Z,97804.55
2019-02-18T03:27:47.050Z,97806.45
2019-02-18T03:33:16.873Z,97802.38
2019-02-18T03:35:44.301Z,97802.95
2019-02-18T03:38:11.683Z,97795.23
2019-02-18T03:40:39.091Z,97799.78
2019-02-18T03:43:06.544Z,97793.39
2019-02-18T03:45:34.029Z,97798.48
2019-02-18T03:48:01.458Z,97804.23
2019-02-18T03:50:28.870Z,97805.11
2019-02-18T03:52:56.308Z,97806.97
2019-02-18T03:55:23.710Z,97795.24
2019-02-18T03:57:51.147Z,97804.36
2019-02-18T04:00:18.666Z,97799.59
2019-02-18T04:02:46.070Z,97801.41
2019-02-18T04:05:13.686Z,97798.59
2019-02-18T04:07:41.393Z,97800.15
2019-02-18T04:10:09.538Z,97801.11
2019-02-18T04:12:37.253Z,97801.61
2019-02-18T04:15:12.072Z,97795.50
2019-02-18T04:17:39.483Z,97794.96
2019-02-18T04:20:06.903Z,97792.00
2019-02-18T04:22:34.309Z,97792.70
2019-02-18T04:25:01.745Z,97797.83
2019-02-18T04:27:29.176Z,97793.97
2019-02-18T04:29:56.568Z,97800.03
2019-02-18T04:32:24.001Z,97798.87
2019-02-18T04:34:51.404Z,97792.40
2019-02-18T04:37:18.954Z,97800.56
2019-02-18T04:39:46.388Z,97795.21
2019-02-18T04:42:13.818Z,97802.06
2019-02-18T04:44:41.203Z,97797.80
2019-02-18T04:47:08.614Z,97793.64
2019-02-18T04:49:36.017Z,97790.34
2019-02-18T04:52:03.462Z,97789.30
2019-02-18T04:54:30.879Z,97787.72
2019-02-18T04:56:58.281Z,97791.88
2019-02-18T04:59:25.725Z,97785.46
2019-02-18T05:01:53.120Z,97787.33
2019-02-18T05:04:20.629Z,97786.79
2019-02-18T05:06:48.020Z,97777.75
2019-02-18T05:09:15.419Z,97786.23
2019-02-18T05:11:42.820Z,97787.63
2019-02-18T05:14:10.231Z,97786.34
2019-02-18T05:16:37.628Z,97781.66
2019-02-18T05:19:05.061Z,97779.02
2019-02-18T05:21:32.601Z,97776.96
2019-02-18T05:24:00.082Z,97781.09
2019-02-18T05:26:27.503Z,97779.88
2019-02-18T05:28:54.933Z,97772.92
2019-02-18T05:31:22.318Z,97775.46
2019-02-18T05:33:49.793Z,97776.13
2019-02-18T05:36:17.211Z,97765.34
2019-02-18T05:38:44.625Z,97767.52
2019-02-18T05:41:12.123Z,97771.38
2019-02-18T05:43:39.540Z,97763.06
2019-02-18T05:46:08.708Z,97764.34
2019-02-18T05:48:34.387Z,97762.90
2019-02-18T05:51:02.395Z,97762.98
2019-02-18T05:53:30.086Z,97760.19
2019-02-18T05:55:57.648Z,97755.96
2019-02-18T05:58:25.071Z,97758.13
2019-02-18T06:00:52.535Z,97756.94
2019-02-18T06:03:20.010Z,97763.17
2019-02-18T06:05:47.669Z,97757.18
2019-02-18T06:08:15.070Z,97754.56
2019-02-18T06:10:42.631Z,97762.23
2019-02-18T06:13:10.048Z,97762.13
2019-02-18T06:15:37.439Z,97762.14
2019-02-18T06:18:04.857Z,97761.51
2019-02-18T06:20:32.250Z,97760.72
2019-02-18T06:22:59.722Z,97763.73
2019-02-18T06:25:27.116Z,97762.97
2019-02-18T06:27:54.549Z,97757.81
2019-02-18T06:30:21.954Z,97762.06
2019-02-18T06:32:49.385Z,97764.81
2019-02-18T06:35:16.797Z,97775.39
2019-02-18T06:37:44.217Z,97777.20
2019-02-18T06:40:11.688Z,97768.09
2019-02-18T06:42:39.099Z,97770.98
2019-02-18T06:45:06.824Z,97768.17
2019-02-18T06:47:34.321Z,97773.44
2019-02-18T06:50:01.758Z,97770.39
2019-02-18T06:52:29.230Z,97769.39
2019-02-18T06:54:56.615Z,97771.20
2019-02-18T06:57:40.064Z,97769.56
2019-02-18T07:00:07.521Z,97763.39
2019-02-18T07:02:35.284Z,97758.95
2019-02-18T07:05:19.725Z,97760.93
2019-02-18T07:07:47.157Z,97766.18
2019-02-18T07:10:14.644Z,97765.29
2019-02-18T07:12:42.266Z,97770.56
2019-02-18T07:15:09.669Z,97771.52
2019-02-18T07:17:37.236Z,97770.09
2019-02-18T07:22:42.043Z,97765.42
2019-02-18T07:25:09.447Z,97773.60
2019-02-18T07:27:37.184Z,97771.62
2019-02-18T07:30:04.836Z,97773.59
2019-02-18T07:32:32.235Z,97773.16
2019-02-18T07:34:59.645Z,97775.50
2019-02-18T07:37:28.104Z,97780.17
2019-02-18T07:40:01.615Z,97774.83
2019-02-18T07:42:22.989Z,97776.61
2019-02-18T07:44:50.402Z,97767.42
2019-02-18T07:47:17.870Z,97763.42
2019-02-18T07:49:45.339Z,97763.72
2019-02-18T07:52:12.901Z,97762.94
2019-02-18T07:54:40.477Z,97755.96
2019-02-18T07:57:07.920Z,97757.38
2019-02-18T07:59:35.349Z,97754.41
2019-02-18T08:02:02.786Z,97756.56
2019-02-18T08:04:30.199Z,97753.05
2019-02-18T08:06:57.789Z,97747.09
2019-02-18T08:09:25.214Z,97756.84
2019-02-18T08:11:52.642Z,97755.27
2019-02-18T08:14:20.211Z,97757.52
2019-02-18T08:16:47.698Z,97761.53
2019-02-18T08:19:15.750Z,97758.65
2019-02-18T08:21:42.554Z,97751.08
2019-02-18T08:24:09.957Z,97759.63
2019-02-18T08:26:37.592Z,97757.63
2019-02-18T08:29:04.987Z,97753.34
2019-02-18T08:31:32.407Z,97744.10
2019-02-18T08:33:59.823Z,97746.67
2019-02-18T08:36:27.441Z,97752.60
2019-02-18T08:38:54.998Z,97759.25
2019-02-18T08:41:22.411Z,97746.66
2019-02-18T08:43:49.896Z,97747.25
2019-02-18T08:46:19.100Z,97744.59
2019-02-18T08:48:46.505Z,97754.65
2019-02-18T08:51:13.977Z,97746.44
2019-02-18T08:53:41.414Z,97745.69
2019-02-18T08:56:09.161Z,97745.21
2019-02-18T08:58:36.598Z,97755.88
2019-02-18T09:01:04.247Z,97752.10
2019-02-18T09:03:31.648Z,97743.81
2019-02-18T09:05:59.089Z,97735.95
2019-02-18T09:08:26.118Z,97731.33
2019-02-18T09:10:54.183Z,97735.22
2019-02-18T09:13:21.611Z,97727.44
2019-02-18T09:15:52.966Z,97725.61
2019-02-18T09:18:16.250Z,97719.95
2019-02-18T09:20:43.671Z,97712.70
2019-02-18T09:23:13.526Z,97716.45
2019-02-18T09:25:43.435Z,97723.93
2019-02-18T09:28:08.586Z,97719.21
2019-02-18T09:30:35.616Z,97710.91
2019-02-18T09:33:03.015Z,97719.24
2019-02-18T09:35:30.453Z,97719.80
2019-02-18T09:37:57.876Z,97715.05
2019-02-18T09:40:25.555Z,97714.91
2019-02-18T09:42:53.081Z,97709.91
2019-02-18T09:45:20.573Z,97709.28
2019-02-18T09:47:47.994Z,97702.25
2019-02-18T09:50:15.462Z,97702.80
2019-02-18T09:52:42.881Z,97707.39
2019-02-18T09:55:10.338Z,97705.59
2019-02-18T09:57:37.752Z,97706.52
2019-02-18T10:00:06.694Z,97703.25
2019-02-18T10:02:34.124Z,97703.25
2019-02-18T10:05:01.829Z,97695.25
2019-02-18T10:07:29.900Z,97693.86
2019-02-18T10:09:57.619Z,97694.14
2019-02-18T10:12:25.143Z,97689.78
2019-02-18T10:14:52.555Z,97691.54
2019-02-18T10:17:20.047Z,97688.58
2019-02-18T10:19:47.882Z,97690.95
2019-02-18T10:22:15.303Z,97684.58
2019-02-18T10:24:50.721Z,97671.22
2019-02-18T10:27:10.662Z,97674.92
2019-02-18T10:29:38.268Z,97671.36
2019-02-18T10:32:05.308Z,97667.39
2019-02-18T10:34:32.291Z,97660.59
2019-02-18T10:36:59.322Z,97666.69
2019-02-18T10:39:26.294Z,97658.98
2019-02-18T10:41:53.251Z,97660.72
2019-02-18T10:44:20.340Z,97650.44
2019-02-18T10:46:47.274Z,97654.89
2019-02-18T10:49:19.803Z,97652.08
2019-02-18T10:51:42.184Z,97652.95
2019-02-18T10:54:09.608Z,97654.73
2019-02-18T10:56:37.085Z,97644.48
2019-02-18T10:59:04.619Z,97644.56
2019-02-18T11:01:32.089Z,97639.50
2019-02-18T11:03:59.619Z,97634.59
2019-02-18T11:06:27.249Z,97626.11
2019-02-18T11:08:55.386Z,97624.08
2019-02-18T11:11:22.799Z,97612.58
2019-02-18T11:13:50.242Z,97613.04
2019-02-18T11:16:17.675Z,97612.08
2019-02-18T11:18:45.166Z,97605.84
2019-02-18T11:21:12.138Z,97597.37
2019-02-18T11:23:39.081Z,97597.04
2019-02-18T11:26:06.014Z,97591.89
2019-02-18T11:28:33.096Z,97583.95
2019-02-18T11:31:00.173Z,97584.67
2019-02-18T11:33:27.125Z,97582.28
2019-02-18T11:35:54.606Z,97575.95
2019-02-18T11:38:22.140Z,97575.72
2019-02-18T11:40:49.577Z,97569.94
2019-02-18T11:43:17.074Z,97566.52
2019-02-18T11:45:44.049Z,97562.45
2019-02-18T11:48:11.658Z,97560.67
2019-02-18T11:50:39.069Z,97554.02
2019-02-18T11:53:06.543Z,97545.36
2019-02-18T11:55:33.496Z,97544.64
2019-02-18T11:58:01.727Z,97540.19
2019-02-18T12:00:29.141Z,97535.31
2019-02-18T12:03:03.132Z,97534.09
2019-02-18T12:05:25.010Z,97529.59
2019-02-18T12:07:52.468Z,97527.75
2019-02-18T12:10:19.934Z,97522.55
2019-02-18T12:12:47.358Z,97518.55
2019-02-18T12:15:14.837Z,97504.03
2019-02-18T12:17:42.682Z,97515.45
2019-02-18T12:20:10.909Z,97512.03
2019-02-18T12:22:38.439Z,97506.13
2019-02-18T12:25:05.408Z,97509.70
2019-02-18T12:27:32.385Z,97502.90
2019-02-18T12:29:59.458Z,97497.91
2019-02-18T12:32:26.961Z,97493.50
2019-02-18T12:34:54.492Z,97497.91
2019-02-18T12:37:22.624Z,97489.12
2019-02-18T12:39:50.243Z,97484.19
2019-02-18T12:42:17.778Z,97480.41
2019-02-18T12:44:45.243Z,97472.12
2019-02-18T12:47:12.821Z,97470.01
2019-02-18T12:49:40.330Z,97471.67
2019-02-18T12:52:07.735Z,97467.60
2019-02-18T12:54:35.169Z,97463.09
2019-02-18T12:57:02.593Z,97465.08
2019-02-18T12:59:30.683Z,97465.61
2019-02-18T13:01:57.746Z,97464.08
2019-02-18T13:04:25.684Z,97464.98
2019-02-18T13:06:53.281Z,97452.30
2019-02-18T13:09:21.353Z,97454.14
2019-02-18T13:11:58.495Z,97451.33
2019-02-18T13:14:16.267Z,97444.97
2019-02-18T13:16:43.714Z,97444.84
2019-02-18T13:19:11.164Z,97446.66
2019-02-18T13:21:38.634Z,97436.98
2019-02-18T13:24:06.161Z,97436.55
2019-02-18T13:26:35.177Z,97427.50
2019-02-18T13:29:02.737Z,97432.84
2019-02-18T13:31:30.166Z,97433.09
2019-02-18T13:33:57.759Z,97430.23
2019-02-18T13:36:25.183Z,97424.30
2019-02-18T13:38:52.671Z,97418.83
2019-02-18T13:41:20.123Z,97410.17
2019-02-18T13:43:47.101Z,97411.20
2019-02-18T13:46:14.225Z,97410.52
2019-02-18T13:48:41.254Z,97416.47
2019-02-18T13:51:08.259Z,97406.59
2019-02-18T13:53:35.367Z,97399.92
2019-02-18T13:56:02.330Z,97401.25
2019-02-18T13:58:29.295Z,97395.69
2019-02-18T14:00:56.266Z,97397.55
2019-02-18T14:03:23.263Z,97392.05
2019-02-18T14:05:50.227Z,97394.98
2019-02-18T14:08:17.174Z,97398.36
2019-02-18T14:10:44.142Z,97391.61
2019-02-18T14:13:11.519Z,97390.29
2019-02-18T14:15:38.491Z,97392.63
2019-02-18T14:18:05.564Z,97387.73
2019-02-18T14:20:32.536Z,97393.87
2019-02-18T14:22:59.507Z,97392.21
2019-02-18T14:25:26.478Z,97396.05
2019-02-18T14:27:53.869Z,97401.19
2019-02-18T14:30:21.292Z,97404.70
2019-02-18T14:32:48.772Z,97400.75
2019-02-18T14:35:16.228Z,97402.88
2019-02-18T14:37:43.181Z,97393.89
2019-02-18T14:40:10.157Z,97391.97
2019-02-18T14:42:37.149Z,97396.34
2019-02-18T14:45:04.252Z,97401.84
2019-02-18T14:47:31.678Z,97393.08
2019-02-18T14:49:59.164Z,97389.79
2019-02-18T14:52:26.107Z,97393.56
2019-02-18T14:54:53.520Z,97399.20
2019-02-18T14:57:20.930Z,97397.23
2019-02-18T14:59:48.547Z,97395.22
2019-02-18T15:02:16.089Z,97388.91
2019-02-18T15:04:43.523Z,97391.63
2019-02-18T15:07:11.816Z,97396.70
2019-02-18T15:09:39.229Z,97388.89
2019-02-18T15:12:07.091Z,97386.77
2019-02-18T15:14:34.084Z,97389.08
2019-02-18T15:17:01.542Z,97392.38
2019-02-18T15:19:28.492Z,97380.22
2019-02-18T15:21:55.915Z,97385.19
2019-02-18T15:24:23.711Z,97375.90
2019-02-18T15:26:51.177Z,97385.16
2019-02-18T15:29:18.591Z,97383.07
2019-02-18T15:31:46.123Z,97379.77
2019-02-18T15:34:13.572Z,97369.47
2019-02-18T15:36:40.975Z,97383.61
2019-02-18T15:39:08.664Z,97386.59
2019-02-18T15:41:36.153Z,97385.17
2019-02-18T15:44:03.574Z,97382.23
2019-02-18T15:46:31.031Z,97384.77
2019-02-18T15:48:58.480Z,97388.92
2019-02-18T15:51:26.008Z,97386.81
2019-02-18T15:53:53.596Z,97385.41
2019-02-18T15:56:21.068Z,97386.69
2019-02-18T15:58:48.511Z,97379.84
2019-02-18T16:01:15.689Z,97384.33
2019-02-18T16:03:42.716Z,97385.46
2019-02-18T16:06:09.807Z,97382.97
2019-02-18T16:08:37.261Z,97380.34
2019-02-18T16:11:04.781Z,97382.58
2019-02-18T16:13:32.243Z,97379.23
2019-02-18T16:15:59.296Z,97381.59
2019-02-18T16:18:26.397Z,97384.27
2019-02-18T16:20:53.490Z,97387.61
2019-02-18T16:23:20.670Z,97389.25
2019-02-18T16:25:47.656Z,97387.47
2019-02-18T16:28:14.607Z,97386.02
2019-02-18T16:30:41.548Z,97392.21
2019-02-18T16:33:09.054Z,97385.89
2019-02-18T16:35:36.475Z,97392.54
2019-02-18T16:38:04.057Z,97395.80
2019-02-18T16:40:31.500Z,97405.86
2019-02-18T16:42:59.621Z,97396.75
2019-02-18T16:45:26.607Z,97404.55
2019-02-18T16:47:54.206Z,97406.53
2019-02-18T16:50:21.654Z,97409.53
2019-02-18T16:52:49.316Z,97416.73
2019-02-18T16:55:16.730Z,97416.94
2019-02-18T16:57:44.280Z,97423.67
2019-02-18T17:00:11.691Z,97422.30
2019-02-18T17:02:39.112Z,97422.95
2019-02-18T17:05:06.598Z,97429.53
2019-02-18T17:07:34.009Z,97429.73
2019-02-18T17:10:01.521Z,97436.31
2019-02-18T17:12:29.143Z,97432.77
2019-02-18T17:14:56.572Z,97431.89
2019-02-18T17:17:24.011Z,97443.39
2019-02-18T17:19:51.409Z,97442.88
2019-02-18T17:22:18.815Z,97443.48
2019-02-18T17:24:46.239Z,97445.99
2019-02-18T17:27:13.728Z,97450.75
2019-02-18T17:29:41.382Z,97453.69
2019-02-18T17:32:08.867Z,97451.58
2019-02-18T17:34:36.371Z,97456.84
2019-02-18T17:37:03.882Z,97457.19
2019-02-18T17:39:31.613Z,97463.03
2019-02-18T17:41:59.029Z,97472.16
2019-02-18T17:44:26.499Z,97464.27
2019-02-18T17:46:53.987Z,97466.36
2019-02-18T17:49:21.401Z,97463.23
2019-02-18T17:51:48.799Z,97474.86
2019-02-18T17:54:16.243Z,97477.59
2019-02-18T17:56:43.707Z,97476.61
2019-02-18T17:59:11.096Z,97477.39
2019-02-18T18:01:38.505Z,97489.44
2019-02-18T18:04:05.981Z,97490.64
2019-02-18T18:06:33.372Z,97497.83
2019-02-18T18:09:00.796Z,97498.11
2019-02-18T18:11:28.399Z,97504.45
2019-02-18T18:13:56.927Z,97510.12
2019-02-18T18:16:24.328Z,97512.41
2019-02-18T18:18:51.729Z,97513.66
2019-02-18T18:21:19.839Z,97517.58
2019-02-18T18:23:47.440Z,97516.89
2019-02-18T18:26:14.872Z,97518.13
2019-02-18T18:28:42.369Z,97509.83
2019-02-18T18:31:09.864Z,97510.26
2019-02-18T18:33:37.297Z,97512.70
2019-02-18T18:36:04.714Z,97514.44
2019-02-18T18:38:32.251Z,97517.11
2019-02-18T18:40:59.810Z,97520.20
2019-02-18T18:43:33.548Z,97519.59
2019-02-18T18:45:54.703Z,97523.22
2019-02-18T18:48:22.103Z,97524.69
2019-02-18T18:50:49.554Z,97521.23
2019-02-18T18:53:17.028Z,97532.14
2019-02-18T18:55:44.451Z,97526.77
2019-02-18T18:58:11.848Z,97531.95
2019-02-18T19:00:39.257Z,97529.19
2019-02-18T19:03:06.702Z,97542.77
2019-02-18T19:05:34.136Z,97536.68
2019-02-18T19:08:01.725Z,97537.84
2019-02-18T19:10:30.443Z,97534.75
2019-02-18T19:12:57.909Z,97530.11
2019-02-18T19:15:25.325Z,97537.50
2019-02-18T19:17:52.894Z,97540.55
2019-02-18T19:20:20.453Z,97542.62
2019-02-18T19:22:47.881Z,97542.67
2019-02-18T19:25:15.299Z,97547.23
2019-02-18T19:27:42.756Z,97550.14
2019-02-18T19:30:17.892Z,97548.07
2019-02-18T19:32:45.317Z,97550.52
2019-02-18T19:35:12.788Z,97555.23
2019-02-18T19:37:40.263Z,97554.23
2019-02-18T19:40:10.287Z,97562.37
2019-02-18T19:42:37.721Z,97564.02
2019-02-18T19:45:05.163Z,97561.10
2019-02-18T19:47:32.567Z,97568.32
2019-02-18T19:50:00.336Z,97570.64
2019-02-18T19:52:27.682Z,97574.33
2019-02-18T19:54:55.091Z,97573.22
2019-02-18T19:57:22.535Z,97577.33
2019-02-18T19:59:50.045Z,97573.36
2019-02-18T20:02:17.466Z,97572.25
2019-02-18T20:04:44.909Z,97577.58
2019-02-18T20:07:12.352Z,97582.58
2019-02-18T20:09:39.846Z,97589.25
2019-02-18T20:12:07.267Z,97588.92
2019-02-18T20:14:34.765Z,97594.91
2019-02-18T20:17:02.199Z,97602.77
2019-02-18T20:19:29.614Z,97595.34
2019-02-18T20:21:57.059Z,97599.80
2019-02-18T20:24:24.475Z,97599.41
2019-02-18T20:26:51.921Z,97598.11
2019-02-18T20:29:19.330Z,97597.98
2019-02-18T20:31:46.791Z,97606.97
2019-02-18T20:34:14.179Z,97606.22
2019-02-18T20:36:41.858Z,97608.17
2019-02-18T20:39:09.297Z,97610.73
2019-02-18T20:41:36.754Z,97605.08
2019-02-18T20:44:07.453Z,97610.39
2019-02-18T20:46:31.665Z,97612.10
2019-02-18T20:48:59.087Z,97607.94
2019-02-18T20:51:26.482Z,97609.15
2019-02-18T20:53:54.270Z,97607.52
2019-02-18T20:56:21.735Z,97604.91
2019-02-18T20:58:49.264Z,97606.59
2019-02-18T21:01:16.675Z,97603.59
2019-02-18T21:03:44.082Z,97608.89
2019-02-18T21:06:11.551Z,97610.84
2019-02-18T21:08:38.989Z,97618.05
2019-02-18T21:11:06.412Z,97617.89
2019-02-18T21:13:33.909Z,97622.73
2019-02-18T21:16:01.343Z,97620.38
2019-02-18T21:18:29.561Z,97618.04
2019-02-18T21:20:57.041Z,97616.20
2019-02-18T21:23:24.489Z,97621.33
2019-02-18T21:25:51.924Z,97620.25
2019-02-18T21:28:19.355Z,97621.98
2019-02-18T21:30:46.791Z,97610.91
2019-02-18T21:33:14.304Z,97606.09
2019-02-18T21:35:41.740Z,97610.91
2019-02-18T21:38:09.165Z,97617.16
2019-02-18T21:40:36.577Z,97616.09
2019-02-18T21:43:04.225Z,97609.78
2019-02-18T21:45:31.640Z,97618.61
2019-02-18T21:47:59.054Z,97613.61
2019-02-18T21:50:26.503Z,97618.86
2019-02-18T21:52:53.894Z,97609.82
2019-02-18T21:55:21.295Z,97617.80
2019-02-18T21:57:48.874Z,97612.52
2019-02-18T22:00:18.771Z,97617.91
2019-02-18T22:02:46.333Z,97615.75
2019-02-18T22:05:13.759Z,97613.83
2019-02-18T22:07:41.885Z,97615.14
2019-02-18T22:10:09.274Z,97612.19
2019-02-18T22:12:36.744Z,97616.92
2019-02-18T22:15:04.346Z,97618.34
2019-02-18T22:17:32.490Z,97619.21
2019-02-18T22:19:59.941Z,97622.34
2019-02-18T22:22:27.336Z,97622.46
2019-02-18T22:24:54.742Z,97617.63
2019-02-18T22:27:22.252Z,97621.72
2019-02-18T22:29:49.666Z,97623.22
2019-02-18T22:32:17.101Z,97619.75
2019-02-18T22:34:44.624Z,97626.61
2019-02-18T22:37:12.015Z,97628.18
2019-02-18T22:39:39.420Z,97630.57
2019-02-18T22:42:07.181Z,97629.92
2019-02-18T22:44:41.777Z,97629.11
2019-02-18T22:47:02.321Z,97625.38
2019-02-18T22:49:29.815Z,97626.78
2019-02-18T22:51:57.211Z,97619.62
2019-02-18T22:54:24.858Z,97621.70
2019-02-18T22:56:52.262Z,97625.04
2019-02-18T22:59:19.707Z,97630.00
2019-02-18T23:01:47.173Z,97627.36
2019-02-18T23:04:14.561Z,97623.26
2019-02-18T23:06:41.953Z,97629.83
2019-02-18T23:09:09.350Z,97624.38
2019-02-18T23:11:36.950Z,97631.86
2019-02-18T23:14:04.333Z,97621.73
2019-02-18T23:16:31.742Z,97630.10
2019-02-18T23:18:59.147Z,97629.50
2019-02-18T23:21:26.655Z,97623.09
2019-02-18T23:23:54.051Z,97630.59
2019-02-18T23:26:21.502Z,97635.94
2019-02-18T23:28:48.916Z,97640.23
2019-02-18T23:31:16.447Z,97636.16
2019-02-18T23:33:43.864Z,97632.17
2019-02-18T23:36:11.262Z,97636.53
2019-02-18T23:38:38.658Z,97631.28
2019-02-18T23:41:06.282Z,97633.05
2019-02-18T23:43:33.689Z,97632.47
2019-02-18T23:46:01.132Z,97636.94
2019-02-18T23:48:28.543Z,97642.62
2019-02-18T23:50:56.211Z,97638.80
2019-02-18T23:53:23.855Z,97638.08
2019-02-18T23:55:51.351Z,97642.80
2019-02-18T23:58:18.763Z,97643.28
